Time;durP1;ratioP1;P1;durP2;ratioP2;P2;SDS_P1;SDS_P2;PMS_P1;PMS_P2;Temp;Humidity;BMP_temperature;BMP_pressure;BME280_temperature;BME280_humidity;BME280_pressure;Samples;Min_cycle;Max_cycle;Signal;HPM_P1;HPM_P2
2023/01/04 00:01:18;;;;;;;3.63;0.40;;;7.80;99.90;;;;;;6275945;22;20014;-78
2023/01/04 00:03:43;;;;;;;4.75;0.40;;;7.90;99.90;;;;;;6250748;22;20467;-77
2023/01/04 00:06:12;;;;;;;3.13;0.77;;;7.90;99.90;;;;;;6301734;22;20003;-79
2023/01/04 00:08:38;;;;;;;1.75;0.30;;;7.90;99.90;;;;;;6250700;22;20050;-78
2023/01/04 00:11:12;;;;;;;1.30;0.30;;;7.90;99.90;;;;;;6275357;22;20007;-78
2023/01/04 00:13:38;;;;;;;4.32;0.30;;;7.90;99.90;;;;;;6303039;22;20072;-77
2023/01/04 00:16:08;;;;;;;2.95;0.40;;;7.90;99.90;;;;;;6275490;22;20015;-78
2023/01/04 00:18:35;;;;;;;5.75;0.50;;;7.90;99.90;;;;;;6301234;22;20313;-77
2023/01/04 00:21:13;;;;;;;3.50;0.30;;;8.00;99.90;;;;;;6302998;22;20003;-77
2023/01/04 00:23:41;;;;;;;2.92;0.30;;;8.00;99.90;;;;;;6275445;22;20125;-78
2023/01/04 00:26:10;;;;;;;6.47;0.40;;;7.90;99.90;;;;;;6303221;22;20003;-78
2023/01/04 00:28:36;;;;;;;2.67;0.40;;;7.90;99.90;;;;;;6275084;22;20015;-78
2023/01/04 00:31:04;;;;;;;3.05;0.40;;;7.90;99.90;;;;;;6275271;22;20034;-78
2023/01/04 00:33:30;;;;;;;2.50;0.40;;;7.90;99.90;;;;;;6275306;22;20435;-78
2023/01/04 00:36:01;;;;;;;4.93;0.82;;;7.90;99.90;;;;;;6303060;22;19999;-78
2023/01/04 00:38:27;;;;;;;4.63;0.50;;;7.90;99.90;;;;;;6275440;22;20072;-78
2023/01/04 00:40:53;;;;;;;3.53;0.32;;;7.90;99.90;;;;;;6275598;22;20338;-77
2023/01/04 00:43:18;;;;;;;2.25;0.40;;;7.90;99.90;;;;;;6275120;22;20011;-77
2023/01/04 00:45:44;;;;;;;3.22;0.40;;;7.90;99.90;;;;;;6275338;22;20011;-78
2023/01/04 00:48:10;;;;;;;3.17;0.38;;;7.80;99.90;;;;;;6275017;22;20007;-78
2023/01/04 00:50:35;;;;;;;2.42;0.40;;;7.90;99.90;;;;;;6301413;22;20027;-78
2023/01/04 00:53:01;;;;;;;2.65;0.38;;;7.90;99.90;;;;;;6275109;22;20015;-78
2023/01/04 00:55:28;;;;;;;2.08;0.50;;;7.90;99.90;;;;;;6303113;22;20301;-78
2023/01/04 00:57:54;;;;;;;1.55;0.32;;;7.90;99.90;;;;;;6274445;22;20037;-79
2023/01/04 01:00:19;;;;;;;3.95;0.40;;;7.90;99.90;;;;;;6275513;22;20000;-79
2023/01/04 01:02:45;;;;;;;1.90;0.40;;;7.90;99.90;;;;;;6275313;22;20082;-78
2023/01/04 01:05:11;;;;;;;2.33;0.50;;;7.90;99.90;;;;;;6302865;22;20003;-78
2023/01/04 01:07:36;;;;;;;2.88;0.50;;;7.90;99.90;;;;;;6302451;22;20001;-77
2023/01/04 01:10:02;;;;;;;3.05;0.40;;;7.90;99.90;;;;;;6274657;22;20020;-78
2023/01/04 01:12:28;;;;;;;3.22;0.35;;;7.90;99.90;;;;;;6249358;22;20019;-77
2023/01/04 01:14:54;;;;;;;2.55;0.57;;;7.90;99.90;;;;;;6302235;22;20078;-77
2023/01/04 01:17:20;;;;;;;4.78;0.40;;;7.90;99.90;;;;;;6301199;22;20050;-77
2023/01/04 01:19:45;;;;;;;2.95;0.50;;;8.00;99.90;;;;;;6275693;22;20037;-77
2023/01/04 01:22:11;;;;;;;4.18;0.40;;;7.90;99.90;;;;;;6300575;22;20007;-77
2023/01/04 01:24:37;;;;;;;3.00;0.50;;;8.00;99.90;;;;;;6249357;22;20003;-78
2023/01/04 01:27:02;;;;;;;3.45;0.50;;;7.90;99.90;;;;;;6300253;22;20026;-77
2023/01/04 01:29:28;;;;;;;5.45;0.57;;;8.00;99.90;;;;;;6300856;22;20395;-76
2023/01/04 01:31:54;;;;;;;4.68;0.40;;;8.00;99.90;;;;;;6301942;22;20019;-77
2023/01/04 01:34:19;;;;;;;2.45;0.43;;;8.10;99.90;;;;;;6275326;22;20018;-76
2023/01/04 01:36:45;;;;;;;1.70;0.35;;;8.00;99.90;;;;;;6274944;22;20014;-76
2023/01/04 01:39:10;;;;;;;1.13;0.40;;;8.10;99.90;;;;;;6274786;22;20022;-78
2023/01/04 01:41:36;;;;;;;3.50;0.40;;;8.10;99.90;;;;;;6301461;22;20000;-77
2023/01/04 01:44:02;;;;;;;3.55;0.40;;;8.10;99.90;;;;;;6302321;22;20094;-77
2023/01/04 01:46:39;;;;;;;2.83;0.40;;;8.10;99.90;;;;;;6249729;22;20005;-76
2023/01/04 01:49:34;;;;;;;1.42;0.30;;;8.20;99.90;;;;;;6249182;22;20068;-78
2023/01/04 01:52:04;;;;;;;2.65;0.35;;;8.20;99.90;;;;;;6274593;22;20011;-78
2023/01/04 01:54:34;;;;;;;;;;;8.20;99.90;;;;;;6275074;22;20012;-77
2023/01/04 01:57:04;;;;;;;3.88;0.40;;;8.20;99.90;;;;;;6300589;22;19903;-78
2023/01/04 01:59:33;;;;;;;0.95;0.30;;;8.20;99.90;;;;;;6274771;22;20450;-78
2023/01/04 02:01:58;;;;;;;1.65;0.30;;;8.20;99.90;;;;;;6249324;22;20332;-77
2023/01/04 02:04:24;;;;;;;2.38;0.30;;;8.20;99.90;;;;;;6274759;22;20098;-78
2023/01/04 02:06:53;;;;;;;1.85;0.28;;;8.20;99.90;;;;;;6274720;22;20083;-77
2023/01/04 02:09:21;;;;;;;1.60;0.40;;;8.30;99.90;;;;;;6274289;22;20003;-77
2023/01/04 02:11:47;;;;;;;5.53;0.40;;;8.30;99.90;;;;;;6301889;22;20177;-77
2023/01/04 02:14:27;;;;;;;3.17;0.60;;;8.40;99.90;;;;;;6300429;22;20086;-77
2023/01/04 02:17:25;;;;;;;2.08;0.32;;;8.40;99.90;;;;;;6274921;22;20015;-77
2023/01/04 02:20:36;;;;;;;3.40;0.30;;;8.40;99.90;;;;;;6274685;22;20035;-77
2023/01/04 02:23:28;;;;;;;2.55;0.30;;;8.50;99.90;;;;;;6151806;23;20124;-77
2023/01/04 02:26:29;;;;;;;1.85;0.35;;;8.50;99.90;;;;;;6152676;23;20088;-77
2023/01/04 02:29:10;;;;;;;3.05;0.40;;;8.50;99.90;;;;;;6147058;23;20020;-77
2023/01/04 02:31:57;;;;;;;2.88;0.50;;;8.50;99.90;;;;;;6122904;23;20041;-77
2023/01/04 02:34:42;;;;;;;2.33;0.80;;;8.60;99.90;;;;;;6123220;23;20086;-80
2023/01/04 02:37:10;;;;;;;1.50;0.50;;;8.60;99.90;;;;;;6147108;23;20088;-76
2023/01/04 02:39:54;;;;;;;5.88;0.70;;;8.60;99.90;;;;;;6147202;23;20021;-77
2023/01/04 02:45:35;;;;;;;1.50;0.50;;;8.60;99.90;;;;;;6148044;23;20060;-77
2023/01/04 02:50:56;;;;;;;3.92;0.50;;;8.70;99.90;;;;;;6124268;23;20067;-78
2023/01/04 02:53:37;;;;;;;2.30;0.40;;;8.70;99.90;;;;;;6124153;23;20398;-77
2023/01/04 02:56:37;;;;;;;1.42;0.40;;;8.70;99.90;;;;;;6143605;22;20396;-77
2023/01/04 02:59:26;;;;;;;2.40;0.57;;;8.70;99.90;;;;;;6243222;22;20016;-76
2023/01/04 03:08:30;;;;;;;0.93;0.40;;;8.80;99.90;;;;;;6303481;22;20340;-77
2023/01/04 03:11:05;;;;;;;1.00;0.30;;;8.80;99.90;;;;;;6303721;22;19999;-77
2023/01/04 03:13:39;;;;;;;2.35;0.30;;;8.80;99.90;;;;;;6276203;22;20096;-77
2023/01/04 03:16:12;;;;;;;1.20;0.30;;;8.80;99.90;;;;;;6276282;22;20030;-77
2023/01/04 03:18:46;;;;;;;0.80;0.30;;;8.80;99.90;;;;;;6276455;22;20432;-76
2023/01/04 03:21:14;;;;;;;0.70;0.30;;;8.80;99.90;;;;;;6301959;22;20053;-76
2023/01/04 03:35:27;;;;;;;0.70;0.30;;;9.00;99.90;;;;;;6303484;22;20501;-77
2023/01/04 03:49:59;;;;;;;2.20;0.30;;;9.00;99.90;;;;;;6275250;22;20010;-77
2023/01/04 03:52:27;;;;;;;0.73;0.25;;;9.00;99.90;;;;;;6276135;22;20026;-77
2023/01/04 03:54:54;;;;;;;1.70;0.30;;;9.10;99.90;;;;;;6275278;22;20015;-77
2023/01/04 03:57:22;;;;;;;0.63;0.22;;;9.10;99.90;;;;;;6250287;22;20015;-77
2023/01/04 04:00:01;;;;;;;0.68;0.20;;;9.10;99.90;;;;;;6303114;22;20423;-78
2023/01/04 04:02:30;;;;;;;1.25;0.20;;;9.10;99.90;;;;;;6303658;22;20012;-77
2023/01/04 04:10:24;;;;;;;1.35;0.40;;;9.10;99.90;;;;;;6303384;22;20007;-76
2023/01/04 04:12:51;;;;;;;0.80;0.40;;;9.20;99.90;;;;;;6275469;22;20023;-77
2023/01/04 04:15:17;;;;;;;0.85;0.30;;;9.20;99.90;;;;;;6250666;22;20003;-77
2023/01/04 04:17:43;;;;;;;0.88;0.40;;;9.30;99.90;;;;;;6275644;22;20007;-77
2023/01/04 04:20:09;;;;;;;1.70;0.40;;;9.20;99.90;;;;;;6274167;22;20060;-77
2023/01/04 04:22:35;;;;;;;0.65;0.30;;;9.30;99.90;;;;;;6276026;22;20018;-76
2023/01/04 04:25:01;;;;;;;1.40;0.30;;;9.30;99.90;;;;;;6302981;22;20008;-77
2023/01/04 04:27:26;;;;;;;0.52;0.30;;;9.30;99.90;;;;;;6275548;22;20015;-77
2023/01/04 04:29:52;;;;;;;0.75;0.38;;;9.30;99.90;;;;;;6275408;22;20084;-77
2023/01/04 04:32:18;;;;;;;0.88;0.30;;;9.40;99.90;;;;;;6301323;22;20019;-76
2023/01/04 04:34:43;;;;;;;0.88;0.30;;;9.40;99.90;;;;;;6249496;22;20495;-77
2023/01/04 04:37:09;;;;;;;0.77;0.40;;;9.40;99.90;;;;;;6301615;22;20106;-77
2023/01/04 04:39:35;;;;;;;2.47;0.40;;;9.40;99.90;;;;;;6275577;22;20061;-77
2023/01/04 04:42:00;;;;;;;2.03;0.50;;;9.50;99.90;;;;;;6275594;22;20011;-77
2023/01/04 04:44:26;;;;;;;1.00;0.40;;;9.50;99.90;;;;;;6275396;22;20090;-77
2023/01/04 04:46:52;;;;;;;1.20;0.40;;;9.60;99.90;;;;;;6274687;22;20058;-76
2023/01/04 04:49:17;;;;;;;1.45;0.40;;;9.50;99.90;;;;;;6300771;22;20007;-77
2023/01/04 04:51:44;;;;;;;2.50;0.40;;;9.60;99.90;;;;;;6249865;22;20015;-77
2023/01/04 04:54:13;;;;;;;0.88;0.30;;;9.60;99.90;;;;;;6273702;22;20022;-76
2023/01/04 04:56:39;;;;;;;1.95;0.40;;;9.60;99.90;;;;;;6303043;22;20483;-77
2023/01/04 04:59:05;;;;;;;0.98;0.40;;;9.60;99.90;;;;;;6302624;22;20026;-77
2023/01/04 05:01:30;;;;;;;1.48;0.40;;;9.60;99.90;;;;;;6302973;22;20379;-77
2023/01/04 05:03:57;;;;;;;1.05;0.35;;;9.60;99.90;;;;;;6274377;22;20004;-76
2023/01/04 05:06:22;;;;;;;1.25;0.30;;;9.60;99.90;;;;;;6275610;22;20007;-76
2023/01/04 05:08:48;;;;;;;1.15;0.30;;;9.60;99.90;;;;;;6274711;22;20081;-77
2023/01/04 05:11:14;;;;;;;1.00;0.30;;;9.60;99.90;;;;;;6302833;22;20015;-77
2023/01/04 05:13:40;;;;;;;0.60;0.30;;;9.60;99.90;;;;;;6249491;22;20110;-76
2023/01/04 05:16:07;;;;;;;0.93;0.40;;;9.60;99.90;;;;;;6274664;22;20037;-76
2023/01/04 05:18:33;;;;;;;0.95;0.40;;;9.60;99.90;;;;;;6274985;22;20041;-77
2023/01/04 05:20:59;;;;;;;1.30;0.40;;;9.70;99.90;;;;;;6274812;22;20037;-78
2023/01/04 05:23:25;;;;;;;1.10;0.43;;;9.60;99.90;;;;;;6275414;22;20015;-76
2023/01/04 05:25:57;;;;;;;1.08;0.43;;;9.70;99.90;;;;;;6249144;22;20064;-77
2023/01/04 05:28:23;;;;;;;1.70;0.40;;;9.70;99.90;;;;;;6249591;22;20019;-76
2023/01/04 05:30:50;;;;;;;0.93;0.50;;;9.70;99.90;;;;;;6274527;22;20044;-76
2023/01/04 05:33:27;;;;;;;1.55;0.30;;;9.70;99.90;;;;;;6274945;22;20401;-76
2023/01/04 05:35:54;;;;;;;1.00;0.40;;;9.70;99.90;;;;;;6302348;22;20103;-78
2023/01/04 05:38:21;;;;;;;1.02;0.40;;;9.70;99.90;;;;;;6275593;22;20016;-76
2023/01/04 05:40:47;;;;;;;1.27;0.50;;;9.70;99.90;;;;;;6302907;22;19999;-78
2023/01/04 05:43:14;;;;;;;2.40;0.50;;;9.70;99.90;;;;;;6249876;22;20407;-77
2023/01/04 05:45:45;;;;;;;1.75;0.70;;;9.70;99.90;;;;;;6274666;22;20441;-77
2023/01/04 05:48:11;;;;;;;2.35;0.55;;;9.70;99.90;;;;;;6274344;22;20052;-76
2023/01/04 05:50:37;;;;;;;1.20;0.50;;;9.80;99.90;;;;;;6275152;22;20015;-76
2023/01/04 05:53:09;;;;;;;1.05;0.50;;;9.70;99.90;;;;;;6300779;22;20011;-77
2023/01/04 05:55:34;;;;;;;1.33;0.70;;;9.70;99.90;;;;;;6302559;22;20466;-77
2023/01/04 05:58:00;;;;;;;1.10;0.60;;;9.80;99.90;;;;;;6274389;22;20007;-76
2023/01/04 06:00:26;;;;;;;1.98;0.70;;;9.70;99.90;;;;;;6273979;22;20026;-78
2023/01/04 06:02:51;;;;;;;3.05;0.60;;;9.80;99.90;;;;;;6274795;22;20093;-77
2023/01/04 06:05:17;;;;;;;2.15;0.80;;;9.80;99.90;;;;;;6301022;22;20024;-77
2023/01/04 06:07:43;;;;;;;1.30;0.70;;;9.80;99.90;;;;;;6274540;22;20007;-76
2023/01/04 06:10:11;;;;;;;1.15;0.70;;;9.80;99.90;;;;;;6302345;22;20023;-77
2023/01/04 06:12:38;;;;;;;1.48;0.60;;;9.80;99.90;;;;;;6274837;22;20082;-77
2023/01/04 06:15:04;;;;;;;1.20;0.60;;;9.90;99.90;;;;;;6273904;22;20373;-76
2023/01/04 06:17:30;;;;;;;1.60;0.70;;;9.90;99.90;;;;;;6273424;22;20011;-76
2023/01/04 06:19:56;;;;;;;1.88;0.50;;;9.90;99.90;;;;;;6273348;22;20436;-77
2023/01/04 06:22:22;;;;;;;1.73;0.60;;;9.90;99.90;;;;;;6276707;22;20090;-77
2023/01/04 06:24:48;;;;;;;1.73;0.85;;;9.90;99.90;;;;;;6303814;22;20068;-77
2023/01/04 06:27:13;;;;;;;1.67;0.60;;;9.90;99.90;;;;;;6276264;22;20003;-77
2023/01/04 06:29:39;;;;;;;2.75;0.55;;;10.00;99.90;;;;;;6276576;22;20007;-76
2023/01/04 06:32:05;;;;;;;2.03;0.70;;;9.90;99.90;;;;;;6303792;22;20034;-77
2023/01/04 06:34:30;;;;;;;1.88;1.08;;;9.90;99.90;;;;;;6276612;22;20003;-77
2023/01/04 06:36:56;;;;;;;1.40;0.75;;;9.90;99.90;;;;;;6276367;22;20007;-77
2023/01/04 06:39:22;;;;;;;1.30;0.70;;;10.00;99.90;;;;;;6304417;22;20070;-77
2023/01/04 06:41:48;;;;;;;2.35;0.88;;;10.00;99.90;;;;;;6275994;22;20112;-78
2023/01/04 06:44:13;;;;;;;1.50;0.80;;;10.00;99.90;;;;;;6276062;22;20056;-78
2023/01/04 06:46:39;;;;;;;2.10;0.80;;;10.00;99.90;;;;;;6303957;22;20004;-77
2023/01/04 06:49:05;;;;;;;3.13;0.98;;;10.00;99.90;;;;;;6275734;22;20007;-77
2023/01/04 06:51:31;;;;;;;2.90;0.60;;;10.10;99.90;;;;;;6302325;22;20305;-77
2023/01/04 06:53:57;;;;;;;1.77;0.80;;;10.10;99.90;;;;;;6276163;22;20025;-76
2023/01/04 06:56:23;;;;;;;1.67;0.73;;;10.10;99.90;;;;;;6302406;22;20328;-77
2023/01/04 06:58:48;;;;;;;1.98;0.80;;;10.10;99.90;;;;;;6301069;22;20018;-77
2023/01/04 07:01:14;;;;;;;2.63;1.13;;;10.10;99.90;;;;;;6303857;22;20060;-76
2023/01/04 07:03:40;;;;;;;2.22;0.77;;;10.20;99.90;;;;;;6276614;22;20057;-76
2023/01/04 07:06:06;;;;;;;1.50;0.80;;;10.30;99.90;;;;;;6249357;22;20007;-76
2023/01/04 07:08:33;;;;;;;3.20;0.70;;;10.20;99.90;;;;;;6301807;22;20038;-76
2023/01/04 07:10:59;;;;;;;3.20;0.60;;;10.30;99.90;;;;;;6273577;22;20765;-76
2023/01/04 07:13:25;;;;;;;1.50;0.50;;;10.30;99.90;;;;;;6247739;22;20023;-75
2023/01/04 07:15:51;;;;;;;2.35;0.40;;;10.30;99.90;;;;;;6273633;22;20321;-76
2023/01/04 07:18:16;;;;;;;1.40;0.50;;;10.30;99.90;;;;;;6273856;22;20451;-76
2023/01/04 07:20:43;;;;;;;1.33;0.60;;;10.40;99.90;;;;;;6274284;22;20007;-77
2023/01/04 07:23:08;;;;;;;2.70;0.40;;;10.40;99.90;;;;;;6275886;22;20012;-77
2023/01/04 07:25:34;;;;;;;2.47;0.40;;;10.40;99.90;;;;;;6247050;22;20509;-76
2023/01/04 07:28:00;;;;;;;3.42;0.90;;;10.40;99.90;;;;;;6268112;22;20011;-76
2023/01/04 07:30:26;;;;;;;2.25;0.52;;;10.50;99.90;;;;;;6295585;22;20030;-76
2023/01/04 07:32:53;;;;;;;3.00;0.70;;;10.50;99.90;;;;;;6299470;22;20007;-75
2023/01/04 07:35:19;;;;;;;3.00;0.55;;;10.50;99.90;;;;;;6276223;22;20007;-76
2023/01/04 07:37:45;;;;;;;2.38;0.90;;;10.50;99.90;;;;;;6274061;22;20325;-76
2023/01/04 07:40:10;;;;;;;1.88;0.50;;;10.60;99.90;;;;;;6301153;22;20009;-76
2023/01/04 07:42:36;;;;;;;1.35;0.40;;;10.60;99.90;;;;;;6274044;22;20318;-76
2023/01/04 07:45:04;;;;;;;1.38;0.63;;;10.50;99.90;;;;;;6274808;22;20011;-76
2023/01/04 07:47:30;;;;;;;1.83;0.50;;;10.50;99.90;;;;;;6249988;22;20086;-75
2023/01/04 07:49:55;;;;;;;1.63;0.50;;;10.60;99.90;;;;;;6303502;22;20018;-76
2023/01/04 07:52:21;;;;;;;2.88;0.45;;;10.60;99.90;;;;;;6303402;22;20015;-77
2023/01/04 07:54:47;;;;;;;2.72;0.40;;;10.60;99.90;;;;;;6301689;22;20082;-76
2023/01/04 07:57:13;;;;;;;2.13;0.80;;;10.60;99.90;;;;;;6248524;22;20022;-76
2023/01/04 07:59:39;;;;;;;2.20;0.40;;;10.60;99.90;;;;;;6302941;22;20457;-77
2023/01/04 08:02:06;;;;;;;3.00;0.82;;;10.50;99.90;;;;;;6301776;22;20040;-77
2023/01/04 08:04:31;;;;;;;1.73;0.35;;;10.60;99.90;;;;;;6303540;22;20007;-76
2023/01/04 08:06:57;;;;;;;2.13;0.30;;;10.60;99.90;;;;;;6275309;22;20056;-76
2023/01/04 08:09:22;;;;;;;3.38;0.50;;;10.60;99.90;;;;;;6250592;22;20462;-76
2023/01/04 08:11:48;;;;;;;1.00;0.30;;;10.60;99.90;;;;;;6302564;22;20428;-76
2023/01/04 08:14:14;;;;;;;1.05;0.43;;;10.70;99.90;;;;;;6301712;22;20428;-76
2023/01/04 08:16:41;;;;;;;1.63;0.50;;;10.70;99.90;;;;;;6275505;22;20003;-76
2023/01/04 08:19:12;;;;;;;3.47;0.45;;;10.70;99.90;;;;;;6275582;22;20038;-76
2023/01/04 08:21:39;;;;;;;1.42;0.30;;;10.70;99.90;;;;;;6301701;22;20039;-76
2023/01/04 08:24:05;;;;;;;2.45;0.40;;;10.70;99.90;;;;;;6303073;22;20003;-76
2023/01/04 08:26:31;;;;;;;1.30;0.32;;;10.70;99.90;;;;;;6249457;22;20452;-76
2023/01/04 08:28:57;;;;;;;2.05;0.40;;;10.70;99.90;;;;;;6303634;22;20000;-76
2023/01/04 08:31:26;;;;;;;2.65;0.40;;;10.70;99.90;;;;;;6250021;22;20022;-76
2023/01/04 08:33:52;;;;;;;2.25;0.38;;;10.80;99.90;;;;;;6249958;22;20500;-76
2023/01/04 08:36:32;;;;;;;1.50;0.30;;;10.80;99.90;;;;;;6275376;22;20003;-77
2023/01/04 08:39:01;;;;;;;1.02;0.20;;;10.80;99.90;;;;;;6302761;22;20137;-77
2023/01/04 08:41:27;;;;;;;1.58;0.25;;;10.80;99.90;;;;;;6302972;22;20007;-77
2023/01/04 08:43:53;;;;;;;2.17;0.40;;;10.80;99.90;;;;;;6249620;22;20012;-77
2023/01/04 08:46:18;;;;;;;3.30;0.40;;;10.90;99.90;;;;;;6302767;22;20446;-76
2023/01/04 08:48:44;;;;;;;3.15;0.40;;;10.90;99.90;;;;;;6275424;22;20041;-76
2023/01/04 08:51:13;;;;;;;0.73;0.30;;;10.90;99.90;;;;;;6274432;22;20009;-76
2023/01/04 08:53:39;;;;;;;1.27;0.32;;;10.90;99.90;;;;;;6275270;22;20387;-77
2023/01/04 08:56:06;;;;;;;2.05;0.30;;;10.90;99.90;;;;;;6248631;22;20003;-77
2023/01/04 08:58:33;;;;;;;1.35;0.30;;;10.90;99.90;;;;;;6274862;22;20011;-78
2023/01/04 09:01:04;;;;;;;1.02;0.30;;;11.00;99.90;;;;;;6301892;22;20011;-77
2023/01/04 09:03:31;;;;;;;1.17;0.28;;;11.00;99.90;;;;;;6249602;22;20030;-77
2023/01/04 09:06:03;;;;;;;3.20;0.40;;;11.00;99.90;;;;;;6300695;22;20007;-77
2023/01/04 09:08:31;;;;;;;2.63;1.02;;;11.00;99.90;;;;;;6249180;22;20003;-76
2023/01/04 09:10:57;;;;;;;1.33;0.20;;;11.00;99.90;;;;;;6301390;22;20031;-76
2023/01/04 09:13:22;;;;;;;2.58;0.20;;;11.00;99.90;;;;;;6274454;22;20019;-76
2023/01/04 09:15:48;;;;;;;1.73;0.30;;;11.00;99.90;;;;;;6302700;22;20346;-76
2023/01/04 09:18:13;;;;;;;1.73;0.20;;;11.10;99.90;;;;;;6274280;22;20432;-76
2023/01/04 09:20:39;;;;;;;2.75;0.20;;;11.10;99.90;;;;;;6302224;22;20003;-76
2023/01/04 09:23:05;;;;;;;1.90;0.30;;;11.10;99.90;;;;;;6274207;22;20013;-77
2023/01/04 09:25:31;;;;;;;0.95;0.20;;;11.20;99.90;;;;;;6274067;22;20090;-76
2023/01/04 09:27:56;;;;;;;2.30;0.30;;;11.20;99.90;;;;;;6274383;22;20010;-76
2023/01/04 09:30:22;;;;;;;1.95;0.20;;;11.20;99.90;;;;;;6274834;22;20025;-76
2023/01/04 09:32:48;;;;;;;1.27;0.43;;;11.20;99.90;;;;;;6301761;22;20014;-76
2023/01/04 09:35:14;;;;;;;1.92;0.40;;;11.30;99.90;;;;;;6274389;22;20070;-77
2023/01/04 09:37:39;;;;;;;2.35;0.20;;;11.30;99.90;;;;;;6274807;22;20068;-76
2023/01/04 09:40:06;;;;;;;1.83;0.20;;;11.30;99.90;;;;;;6301533;22;20058;-77
2023/01/04 09:42:39;;;;;;;2.95;0.30;;;11.40;99.90;;;;;;6274596;22;20003;-77
2023/01/04 09:45:16;;;;;;;0.93;0.28;;;11.50;99.90;;;;;;6274315;22;20003;-76
2023/01/04 09:47:50;;;;;;;2.38;0.30;;;11.40;99.90;;;;;;6274726;22;20014;-76
2023/01/04 09:50:33;;;;;;;2.60;0.35;;;11.50;99.90;;;;;;6274517;22;20011;-76
2023/01/04 09:53:19;;;;;;;2.95;0.30;;;11.40;99.90;;;;;;6273603;22;20382;-76
2023/01/04 09:55:51;;;;;;;2.03;0.38;;;11.40;99.90;;;;;;6249313;22;20015;-75
2023/01/04 09:58:28;;;;;;;1.40;0.30;;;11.40;99.90;;;;;;6248907;22;20011;-76
2023/01/04 10:01:32;;;;;;;3.15;0.40;;;11.50;99.90;;;;;;6301921;22;20443;-76
2023/01/04 10:04:04;;;;;;;2.13;0.20;;;11.50;99.90;;;;;;6253885;22;20007;-76
2023/01/04 10:06:31;;;;;;;1.52;0.30;;;11.40;99.90;;;;;;6248668;22;20049;-76
2023/01/04 10:09:02;;;;;;;1.92;0.25;;;11.40;99.90;;;;;;6273468;22;19999;-76
2023/01/04 10:11:39;;;;;;;1.25;0.20;;;11.40;99.90;;;;;;6274445;22;20067;-77
2023/01/04 10:14:10;;;;;;;1.27;0.30;;;11.40;99.90;;;;;;6300655;22;20003;-76
2023/01/04 10:16:47;;;;;;;0.70;0.20;;;11.40;99.90;;;;;;6274371;22;20018;-76
2023/01/04 10:19:57;;;;;;;1.20;0.20;;;11.40;99.90;;;;;;6248980;22;20093;-76
2023/01/04 10:22:52;;;;;;;1.58;0.30;;;11.40;99.90;;;;;;6242522;22;20592;-77
2023/01/04 10:25:39;;;;;;;0.82;0.20;;;11.40;99.90;;;;;;6249056;22;20036;-77
2023/01/04 10:28:31;;;;;;;3.47;0.63;;;11.40;99.90;;;;;;6301292;22;20486;-76
2023/01/04 10:31:18;;;;;;;1.83;0.20;;;11.40;99.90;;;;;;6274329;22;20014;-76
2023/01/04 10:33:53;;;;;;;0.52;0.20;;;11.40;99.90;;;;;;6248512;22;20015;-76
2023/01/04 10:36:23;;;;;;;0.80;0.10;;;11.40;99.90;;;;;;6273512;22;20026;-76
2023/01/04 10:38:55;;;;;;;2.22;0.30;;;11.40;99.90;;;;;;6273720;22;20090;-77
2023/01/04 10:41:25;;;;;;;1.05;0.20;;;11.40;99.90;;;;;;6249120;22;20027;-76
2023/01/04 10:44:16;;;;;;;1.70;0.30;;;11.40;99.90;;;;;;6273675;22;20007;-77
2023/01/04 10:47:15;;;;;;;1.23;0.30;;;11.40;99.90;;;;;;6274123;22;20439;-77
2023/01/04 10:49:52;;;;;;;0.50;0.20;;;11.40;99.90;;;;;;6274035;22;20007;-77
2023/01/04 10:52:28;;;;;;;1.20;0.20;;;11.40;99.90;;;;;;6300862;22;20394;-77
2023/01/04 10:55:06;;;;;;;0.60;0.20;;;11.40;99.90;;;;;;6273379;22;20424;-77
2023/01/04 10:58:04;;;;;;;1.15;0.20;;;11.50;99.90;;;;;;6248989;22;20041;-77
2023/01/04 11:00:38;;;;;;;0.50;0.20;;;11.40;99.90;;;;;;6277852;22;20444;-76
2023/01/04 11:03:13;;;;;;;1.60;0.30;;;11.50;99.90;;;;;;6248292;22;20330;-77
2023/01/04 11:05:56;;;;;;;0.93;0.20;;;11.50;99.90;;;;;;6273980;22;20030;-78
2023/01/04 11:08:28;;;;;;;1.50;0.20;;;11.50;99.90;;;;;;6303018;22;20011;-76
2023/01/04 11:11:18;;;;;;;2.75;0.30;;;11.50;99.90;;;;;;6275711;22;20008;-76
2023/01/04 11:13:43;;;;;;;0.80;0.20;;;11.50;99.90;;;;;;6293380;22;20015;-77
2023/01/04 11:16:10;;;;;;;0.80;0.20;;;11.50;99.90;;;;;;6275269;22;20038;-77
2023/01/04 11:18:38;;;;;;;0.75;0.10;;;11.50;99.90;;;;;;6303392;22;20007;-77
2023/01/04 11:21:08;;;;;;;0.60;0.20;;;11.50;99.90;;;;;;6275195;22;20006;-76
2023/01/04 11:23:34;;;;;;;1.70;0.28;;;11.50;99.90;;;;;;6275767;22;20099;-76
2023/01/04 11:26:06;;;;;;;2.25;0.10;;;11.60;99.90;;;;;;6276171;22;20050;-77
2023/01/04 11:28:53;;;;;;;0.98;0.20;;;11.60;99.90;;;;;;6275915;22;20309;-77
2023/01/04 11:31:34;;;;;;;0.40;0.20;;;11.60;99.90;;;;;;6250343;22;20033;-77
2023/01/04 11:34:02;;;;;;;0.30;0.10;;;11.60;99.90;;;;;;6249460;22;20504;-76
2023/01/04 11:36:33;;;;;;;0.77;0.20;;;11.60;99.90;;;;;;6249686;22;20049;-76
2023/01/04 11:38:59;;;;;;;0.57;0.20;;;11.60;99.90;;;;;;6249647;22;20310;-77
2023/01/04 11:41:26;;;;;;;0.75;0.20;;;11.50;99.90;;;;;;6303481;22;20048;-76
2023/01/04 11:44:05;;;;;;;1.15;0.20;;;11.50;99.90;;;;;;6275206;22;20340;-76
2023/01/04 11:46:33;;;;;;;1.67;0.20;;;11.60;99.90;;;;;;6250066;22;20156;-76
2023/01/04 11:48:59;;;;;;;0.80;0.30;;;11.60;99.90;;;;;;6274712;22;20136;-76
2023/01/04 11:51:35;;;;;;;0.90;0.20;;;11.50;99.90;;;;;;6303164;22;20035;-75
2023/01/04 11:54:19;;;;;;;0.65;0.17;;;11.60;99.90;;;;;;6274965;22;20023;-75
2023/01/04 11:57:02;;;;;;;1.00;0.20;;;11.60;99.90;;;;;;6275974;22;20003;-75
2023/01/04 11:59:29;;;;;;;0.95;0.20;;;11.70;99.90;;;;;;6250324;22;20023;-75
2023/01/04 12:02:19;;;;;;;0.47;0.10;;;11.70;99.90;;;;;;6275544;22;20057;-75
2023/01/04 12:04:44;;;;;;;0.50;0.10;;;11.70;99.90;;;;;;6275393;22;20022;-75
2023/01/04 12:07:31;;;;;;;0.38;0.10;;;11.70;99.90;;;;;;6275261;22;20385;-76
2023/01/04 12:09:59;;;;;;;0.57;0.13;;;11.70;99.90;;;;;;6249337;22;20069;-75
2023/01/04 12:12:29;;;;;;;1.30;0.20;;;11.60;99.90;;;;;;6275490;22;20045;-75
2023/01/04 12:14:55;;;;;;;1.13;0.20;;;11.60;99.90;;;;;;6274828;22;20057;-76
2023/01/04 12:17:46;;;;;;;1.02;0.17;;;11.70;99.90;;;;;;6302796;22;20094;-75
2023/01/04 12:20:18;;;;;;;0.82;0.10;;;11.70;99.90;;;;;;6274565;22;20368;-76
2023/01/04 12:22:44;;;;;;;0.30;0.10;;;11.70;99.90;;;;;;6302477;22;20162;-75
2023/01/04 12:25:33;;;;;;;0.45;0.15;;;11.70;99.90;;;;;;6274869;22;20523;-76
2023/01/04 12:27:59;;;;;;;0.43;0.20;;;11.70;99.90;;;;;;6274112;22;20045;-75
2023/01/04 12:30:33;;;;;;;0.55;0.20;;;11.80;99.90;;;;;;6274948;22;20014;-75
2023/01/04 12:33:19;;;;;;;0.57;0.30;;;11.80;99.90;;;;;;6274272;22;20026;-75
2023/01/04 12:35:58;;;;;;;0.80;0.30;;;11.80;99.90;;;;;;6302159;22;20387;-75
2023/01/04 12:38:53;;;;;;;1.75;0.32;;;11.90;99.90;;;;;;6274995;22;20011;-76
2023/01/04 12:41:23;;;;;;;0.68;0.30;;;11.90;99.90;;;;;;6271720;22;20014;-79
2023/01/04 12:43:49;;;;;;;1.48;0.40;;;12.00;99.90;;;;;;6273809;22;20054;-80
2023/01/04 12:49:29;;;;;;;1.52;0.30;;;12.10;99.90;;;;;;6302182;22;20014;-77
2023/01/04 12:52:07;;;;;;;1.20;0.43;;;12.10;99.90;;;;;;6302018;22;20015;-75
2023/01/04 12:54:51;;;;;;;2.13;0.40;;;12.20;99.90;;;;;;6230763;22;20099;-79
2023/01/04 12:57:17;;;;;;;1.20;0.30;;;12.10;99.90;;;;;;6244799;22;20158;-78
2023/01/04 13:00:05;;;;;;;1.45;0.30;;;12.20;99.90;;;;;;6219409;22;20054;-75
2023/01/04 13:02:49;;;;;;;1.73;0.40;;;12.20;99.90;;;;;;6269290;22;20015;-75
2023/01/04 13:05:18;;;;;;;1.77;0.40;;;12.20;99.90;;;;;;6244088;22;20039;-75
2023/01/04 13:07:46;;;;;;;1.77;0.30;;;12.30;99.90;;;;;;6244483;22;20432;-75
2023/01/04 13:10:19;;;;;;;2.35;0.50;;;12.30;99.90;;;;;;6270766;22;20432;-75
2023/01/04 13:12:51;;;;;;;2.17;0.30;;;12.30;99.90;;;;;;6269944;22;20023;-76
2023/01/04 13:15:44;;;;;;;2.58;0.40;;;12.30;99.90;;;;;;6217744;22;20110;-75
2023/01/04 13:18:31;;;;;;;1.25;0.40;;;12.30;99.90;;;;;;6243943;22;20313;-77
2023/01/04 13:20:57;;;;;;;2.33;0.32;;;12.30;99.90;;;;;;6243629;22;20087;-75
2023/01/04 13:23:25;;;;;;;4.53;0.40;;;12.40;99.90;;;;;;6244120;22;20340;-75
2023/01/04 13:25:51;;;;;;;1.85;0.40;;;12.40;99.90;;;;;;6268779;22;20074;-75
2023/01/04 13:28:18;;;;;;;1.40;0.40;;;12.40;99.90;;;;;;6271326;22;20428;-75
2023/01/04 13:30:45;;;;;;;1.33;0.40;;;12.40;99.90;;;;;;6268922;22;20008;-75
2023/01/04 13:33:19;;;;;;;2.63;0.40;;;12.40;99.90;;;;;;6270680;22;20025;-75
2023/01/04 13:36:08;;;;;;;3.35;0.43;;;12.40;99.90;;;;;;6271412;22;20008;-76
2023/01/04 13:38:34;;;;;;;3.90;0.40;;;12.40;99.90;;;;;;6265013;22;20008;-76
2023/01/04 13:41:00;;;;;;;1.90;0.30;;;12.30;99.90;;;;;;6295074;22;20003;-76
2023/01/04 13:43:34;;;;;;;3.92;0.50;;;12.40;99.90;;;;;;6269463;22;20409;-75
2023/01/04 13:46:13;;;;;;;1.60;0.52;;;12.40;99.90;;;;;;6270165;22;20038;-76
2023/01/04 13:48:42;;;;;;;4.82;0.50;;;12.50;99.90;;;;;;6269288;22;20003;-75
2023/01/04 13:51:23;;;;;;;5.03;0.50;;;12.50;99.90;;;;;;6294003;22;20479;-76
2023/01/04 13:53:56;;;;;;;2.50;0.50;;;12.50;99.90;;;;;;6273765;22;20114;-76
2023/01/04 13:56:27;;;;;;;2.20;0.60;;;12.50;99.90;;;;;;6274235;22;20007;-75